sensor_id;sensor_type;location;lat;lon;timestamp;P1;durP1;ratioP1;P2;durP2;ratioP2
58615;SDS011;44385;51.992;4.206;2022-11-20T00:02:02;22.77;;;14.10;;
58615;SDS011;44385;51.992;4.206;2022-11-20T00:04:28;20.30;;;15.45;;
58615;SDS011;44385;51.992;4.206;2022-11-20T00:06:57;18.98;;;14.05;;
58615;SDS011;44385;51.992;4.206;2022-11-20T00:09:23;20.15;;;14.27;;
58615;SDS011;44385;51.992;4.206;2022-11-20T00:11:49;17.65;;;13.20;;
58615;SDS011;44385;51.992;4.206;2022-11-20T00:14:16;18.13;;;14.05;;
58615;SDS011;44385;51.992;4.206;2022-11-20T00:16:42;19.77;;;14.02;;
58615;SDS011;44385;51.992;4.206;2022-11-20T00:19:09;20.55;;;14.38;;
58615;SDS011;44385;51.992;4.206;2022-11-20T00:21:35;18.60;;;14.18;;
58615;SDS011;44385;51.992;4.206;2022-11-20T00:24:03;17.20;;;14.13;;
58615;SDS011;44385;51.992;4.206;2022-11-20T00:26:30;20.08;;;14.35;;
58615;SDS011;44385;51.992;4.206;2022-11-20T00:28:56;18.20;;;14.35;;
58615;SDS011;44385;51.992;4.206;2022-11-20T00:31:23;18.33;;;14.32;;
58615;SDS011;44385;51.992;4.206;2022-11-20T00:33:49;20.88;;;14.38;;
58615;SDS011;44385;51.992;4.206;2022-11-20T00:36:17;19.05;;;14.70;;
58615;SDS011;44385;51.992;4.206;2022-11-20T00:38:44;20.45;;;14.07;;
58615;SDS011;44385;51.992;4.206;2022-11-20T00:41:12;20.27;;;13.93;;
58615;SDS011;44385;51.992;4.206;2022-11-20T00:43:39;19.15;;;13.77;;
58615;SDS011;44385;51.992;4.206;2022-11-20T00:46:07;17.45;;;13.95;;
58615;SDS011;44385;51.992;4.206;2022-11-20T00:48:34;18.23;;;14.32;;
58615;SDS011;44385;51.992;4.206;2022-11-20T00:51:00;20.45;;;14.43;;
58615;SDS011;44385;51.992;4.206;2022-11-20T00:53:27;18.58;;;13.50;;
58615;SDS011;44385;51.992;4.206;2022-11-20T00:55:53;17.48;;;13.45;;
58615;SDS011;44385;51.992;4.206;2022-11-20T00:58:24;22.00;;;14.43;;
58615;SDS011;44385;51.992;4.206;2022-11-20T01:00:51;17.33;;;14.10;;
58615;SDS011;44385;51.992;4.206;2022-11-20T01:03:17;22.35;;;15.07;;
58615;SDS011;44385;51.992;4.206;2022-11-20T01:05:44;20.00;;;13.80;;
58615;SDS011;44385;51.992;4.206;2022-11-20T01:08:11;18.55;;;14.20;;
58615;SDS011;44385;51.992;4.206;2022-11-20T01:10:37;18.15;;;13.95;;
58615;SDS011;44385;51.992;4.206;2022-11-20T01:13:03;19.50;;;14.70;;
58615;SDS011;44385;51.992;4.206;2022-11-20T01:15:49;20.17;;;14.40;;
58615;SDS011;44385;51.992;4.206;2022-11-20T01:18:15;21.88;;;13.85;;
58615;SDS011;44385;51.992;4.206;2022-11-20T01:20:41;19.23;;;13.70;;
58615;SDS011;44385;51.992;4.206;2022-11-20T01:23:08;20.70;;;14.52;;
58615;SDS011;44385;51.992;4.206;2022-11-20T01:25:34;18.92;;;14.57;;
58615;SDS011;44385;51.992;4.206;2022-11-20T01:28:00;20.42;;;14.10;;
58615;SDS011;44385;51.992;4.206;2022-11-20T01:30:27;19.88;;;14.43;;
58615;SDS011;44385;51.992;4.206;2022-11-20T01:32:56;18.67;;;13.88;;
58615;SDS011;44385;51.992;4.206;2022-11-20T01:35:22;21.45;;;15.00;;
58615;SDS011;44385;51.992;4.206;2022-11-20T01:37:49;18.38;;;14.00;;
58615;SDS011;44385;51.992;4.206;2022-11-20T01:40:16;17.88;;;14.13;;
58615;SDS011;44385;51.992;4.206;2022-11-20T01:42:44;18.08;;;14.07;;
58615;SDS011;44385;51.992;4.206;2022-11-20T01:45:42;19.17;;;13.48;;
58615;SDS011;44385;51.992;4.206;2022-11-20T01:48:17;19.05;;;13.98;;
58615;SDS011;44385;51.992;4.206;2022-11-20T01:50:44;20.38;;;15.32;;
58615;SDS011;44385;51.992;4.206;2022-11-20T01:53:11;19.88;;;14.88;;
58615;SDS011;44385;51.992;4.206;2022-11-20T01:55:39;19.67;;;14.70;;
58615;SDS011;44385;51.992;4.206;2022-11-20T01:58:09;21.95;;;14.77;;
58615;SDS011;44385;51.992;4.206;2022-11-20T02:00:36;19.25;;;13.88;;
58615;SDS011;44385;51.992;4.206;2022-11-20T02:03:03;19.15;;;14.30;;
58615;SDS011;44385;51.992;4.206;2022-11-20T02:05:32;18.20;;;13.95;;
58615;SDS011;44385;51.992;4.206;2022-11-20T02:08:00;21.35;;;15.02;;
58615;SDS011;44385;51.992;4.206;2022-11-20T02:10:28;17.75;;;13.73;;
58615;SDS011;44385;51.992;4.206;2022-11-20T02:12:55;20.63;;;15.73;;
58615;SDS011;44385;51.992;4.206;2022-11-20T02:15:40;21.52;;;14.82;;
58615;SDS011;44385;51.992;4.206;2022-11-20T02:18:07;19.20;;;13.88;;
58615;SDS011;44385;51.992;4.206;2022-11-20T02:20:35;19.63;;;14.73;;
58615;SDS011;44385;51.992;4.206;2022-11-20T02:23:03;20.52;;;14.57;;
58615;SDS011;44385;51.992;4.206;2022-11-20T02:25:32;19.02;;;14.45;;
58615;SDS011;44385;51.992;4.206;2022-11-20T02:27:59;22.63;;;15.82;;
58615;SDS011;44385;51.992;4.206;2022-11-20T02:30:25;18.90;;;14.52;;
58615;SDS011;44385;51.992;4.206;2022-11-20T02:32:51;21.38;;;14.90;;
58615;SDS011;44385;51.992;4.206;2022-11-20T02:38:03;19.50;;;14.95;;
58615;SDS011;44385;51.992;4.206;2022-11-20T02:40:29;18.70;;;13.95;;
58615;SDS011;44385;51.992;4.206;2022-11-20T02:42:57;20.80;;;15.05;;
58615;SDS011;44385;51.992;4.206;2022-11-20T02:45:24;20.38;;;14.38;;
58615;SDS011;44385;51.992;4.206;2022-11-20T02:47:50;19.98;;;15.40;;
58615;SDS011;44385;51.992;4.206;2022-11-20T02:50:17;20.10;;;15.23;;
58615;SDS011;44385;51.992;4.206;2022-11-20T02:52:43;20.20;;;14.50;;
58615;SDS011;44385;51.992;4.206;2022-11-20T02:55:10;19.67;;;14.65;;
58615;SDS011;44385;51.992;4.206;2022-11-20T02:57:36;20.42;;;15.48;;
58615;SDS011;44385;51.992;4.206;2022-11-20T03:00:05;20.83;;;15.73;;
58615;SDS011;44385;51.992;4.206;2022-11-20T03:02:34;20.17;;;15.30;;
58615;SDS011;44385;51.992;4.206;2022-11-20T03:05:00;22.13;;;15.00;;
58615;SDS011;44385;51.992;4.206;2022-11-20T03:07:27;24.60;;;15.10;;
58615;SDS011;44385;51.992;4.206;2022-11-20T03:09:53;21.92;;;14.77;;
58615;SDS011;44385;51.992;4.206;2022-11-20T03:12:19;21.58;;;14.80;;
58615;SDS011;44385;51.992;4.206;2022-11-20T03:14:46;20.55;;;14.10;;
58615;SDS011;44385;51.992;4.206;2022-11-20T03:17:13;21.83;;;15.23;;
58615;SDS011;44385;51.992;4.206;2022-11-20T03:19:40;22.77;;;15.38;;
58615;SDS011;44385;51.992;4.206;2022-11-20T03:22:07;20.15;;;15.07;;
58615;SDS011;44385;51.992;4.206;2022-11-20T03:24:34;19.63;;;14.60;;
58615;SDS011;44385;51.992;4.206;2022-11-20T03:27:00;22.02;;;15.07;;
58615;SDS011;44385;51.992;4.206;2022-11-20T03:29:27;20.38;;;14.35;;
58615;SDS011;44385;51.992;4.206;2022-11-20T03:31:53;22.48;;;15.35;;
58615;SDS011;44385;51.992;4.206;2022-11-20T03:34:21;20.15;;;15.25;;
58615;SDS011;44385;51.992;4.206;2022-11-20T03:36:48;23.63;;;15.32;;
58615;SDS011;44385;51.992;4.206;2022-11-20T03:39:14;24.20;;;16.13;;
58615;SDS011;44385;51.992;4.206;2022-11-20T03:41:41;21.15;;;15.98;;
58615;SDS011;44385;51.992;4.206;2022-11-20T03:44:09;23.92;;;15.85;;
58615;SDS011;44385;51.992;4.206;2022-11-20T03:46:36;20.80;;;15.43;;
58615;SDS011;44385;51.992;4.206;2022-11-20T03:49:03;21.40;;;15.48;;
58615;SDS011;44385;51.992;4.206;2022-11-20T03:51:31;22.55;;;16.35;;
58615;SDS011;44385;51.992;4.206;2022-11-20T03:53:58;22.05;;;15.73;;
58615;SDS011;44385;51.992;4.206;2022-11-20T03:56:26;23.23;;;17.35;;
58615;SDS011;44385;51.992;4.206;2022-11-20T03:58:53;20.83;;;16.05;;
58615;SDS011;44385;51.992;4.206;2022-11-20T04:01:20;25.50;;;17.73;;
58615;SDS011;44385;51.992;4.206;2022-11-20T04:03:47;24.20;;;17.25;;
58615;SDS011;44385;51.992;4.206;2022-11-20T04:06:14;27.75;;;18.67;;
58615;SDS011;44385;51.992;4.206;2022-11-20T04:08:42;24.17;;;16.98;;
58615;SDS011;44385;51.992;4.206;2022-11-20T04:11:09;23.00;;;16.20;;
58615;SDS011;44385;51.992;4.206;2022-11-20T04:13:35;23.15;;;16.27;;
58615;SDS011;44385;51.992;4.206;2022-11-20T04:16:02;26.88;;;17.10;;
58615;SDS011;44385;51.992;4.206;2022-11-20T04:18:28;22.85;;;16.67;;
58615;SDS011;44385;51.992;4.206;2022-11-20T04:20:56;22.98;;;15.68;;
58615;SDS011;44385;51.992;4.206;2022-11-20T04:23:22;23.20;;;16.63;;
58615;SDS011;44385;51.992;4.206;2022-11-20T04:25:50;23.40;;;16.42;;
58615;SDS011;44385;51.992;4.206;2022-11-20T04:28:16;23.73;;;16.63;;
58615;SDS011;44385;51.992;4.206;2022-11-20T04:30:43;24.33;;;16.45;;
58615;SDS011;44385;51.992;4.206;2022-11-20T04:33:09;20.70;;;15.55;;
58615;SDS011;44385;51.992;4.206;2022-11-20T04:35:36;23.10;;;15.25;;
58615;SDS011;44385;51.992;4.206;2022-11-20T04:38:03;20.52;;;15.57;;
58615;SDS011;44385;51.992;4.206;2022-11-20T04:40:29;23.65;;;16.02;;
58615;SDS011;44385;51.992;4.206;2022-11-20T04:42:57;21.40;;;16.25;;
58615;SDS011;44385;51.992;4.206;2022-11-20T04:45:24;20.33;;;15.05;;
58615;SDS011;44385;51.992;4.206;2022-11-20T04:47:50;21.35;;;15.75;;
58615;SDS011;44385;51.992;4.206;2022-11-20T04:50:17;20.83;;;14.88;;
58615;SDS011;44385;51.992;4.206;2022-11-20T04:52:43;23.33;;;16.55;;
58615;SDS011;44385;51.992;4.206;2022-11-20T04:55:09;21.38;;;16.20;;
58615;SDS011;44385;51.992;4.206;2022-11-20T04:57:39;23.45;;;16.30;;
58615;SDS011;44385;51.992;4.206;2022-11-20T05:00:07;24.88;;;16.48;;
58615;SDS011;44385;51.992;4.206;2022-11-20T05:02:34;23.10;;;16.07;;
58615;SDS011;44385;51.992;4.206;2022-11-20T05:05:00;25.13;;;17.30;;
58615;SDS011;44385;51.992;4.206;2022-11-20T05:07:27;23.60;;;15.93;;
58615;SDS011;44385;51.992;4.206;2022-11-20T05:09:53;21.40;;;16.13;;
58615;SDS011;44385;51.992;4.206;2022-11-20T05:12:20;22.73;;;15.48;;
58615;SDS011;44385;51.992;4.206;2022-11-20T05:14:47;21.65;;;15.77;;
58615;SDS011;44385;51.992;4.206;2022-11-20T05:17:15;25.13;;;16.77;;
58615;SDS011;44385;51.992;4.206;2022-11-20T05:19:41;21.83;;;16.17;;
58615;SDS011;44385;51.992;4.206;2022-11-20T05:22:07;25.90;;;17.00;;
58615;SDS011;44385;51.992;4.206;2022-11-20T05:24:34;21.90;;;15.75;;
58615;SDS011;44385;51.992;4.206;2022-11-20T05:27:00;24.05;;;16.02;;
58615;SDS011;44385;51.992;4.206;2022-11-20T05:29:26;22.17;;;15.35;;
58615;SDS011;44385;51.992;4.206;2022-11-20T05:31:53;22.90;;;16.10;;
58615;SDS011;44385;51.992;4.206;2022-11-20T05:34:21;25.45;;;16.75;;
58615;SDS011;44385;51.992;4.206;2022-11-20T05:36:47;20.63;;;15.73;;
58615;SDS011;44385;51.992;4.206;2022-11-20T05:39:13;23.50;;;16.23;;
58615;SDS011;44385;51.992;4.206;2022-11-20T05:41:40;21.63;;;15.52;;
58615;SDS011;44385;51.992;4.206;2022-11-20T05:44:07;23.05;;;16.35;;
58615;SDS011;44385;51.992;4.206;2022-11-20T05:46:33;24.48;;;16.45;;
58615;SDS011;44385;51.992;4.206;2022-11-20T05:49:00;25.77;;;17.30;;
58615;SDS011;44385;51.992;4.206;2022-11-20T05:51:27;23.92;;;17.02;;
58615;SDS011;44385;51.992;4.206;2022-11-20T05:53:56;25.67;;;17.40;;
58615;SDS011;44385;51.992;4.206;2022-11-20T05:56:22;22.50;;;16.23;;
58615;SDS011;44385;51.992;4.206;2022-11-20T05:58:49;23.85;;;16.45;;
58615;SDS011;44385;51.992;4.206;2022-11-20T06:01:17;21.98;;;16.67;;
58615;SDS011;44385;51.992;4.206;2022-11-20T06:03:44;25.52;;;17.42;;
58615;SDS011;44385;51.992;4.206;2022-11-20T06:06:12;25.70;;;18.08;;
58615;SDS011;44385;51.992;4.206;2022-11-20T06:08:40;22.13;;;17.38;;
58615;SDS011;44385;51.992;4.206;2022-11-20T06:11:08;22.42;;;16.58;;
58615;SDS011;44385;51.992;4.206;2022-11-20T06:13:34;22.50;;;17.67;;
58615;SDS011;44385;51.992;4.206;2022-11-20T06:16:01;24.75;;;17.95;;
58615;SDS011;44385;51.992;4.206;2022-11-20T06:18:29;23.17;;;16.75;;
58615;SDS011;44385;51.992;4.206;2022-11-20T06:21:02;28.35;;;18.60;;
58615;SDS011;44385;51.992;4.206;2022-11-20T06:23:29;25.35;;;17.10;;
58615;SDS011;44385;51.992;4.206;2022-11-20T06:25:58;23.30;;;17.55;;
58615;SDS011;44385;51.992;4.206;2022-11-20T06:28:24;26.13;;;18.38;;
58615;SDS011;44385;51.992;4.206;2022-11-20T06:30:50;26.52;;;18.08;;
58615;SDS011;44385;51.992;4.206;2022-11-20T06:33:17;26.90;;;16.98;;
58615;SDS011;44385;51.992;4.206;2022-11-20T06:35:43;24.52;;;17.80;;
58615;SDS011;44385;51.992;4.206;2022-11-20T06:38:09;25.85;;;18.50;;
58615;SDS011;44385;51.992;4.206;2022-11-20T06:40:39;26.77;;;19.00;;
58615;SDS011;44385;51.992;4.206;2022-11-20T06:45:34;23.95;;;17.08;;
58615;SDS011;44385;51.992;4.206;2022-11-20T06:48:00;27.90;;;19.38;;
58615;SDS011;44385;51.992;4.206;2022-11-20T06:50:27;24.33;;;19.00;;
58615;SDS011;44385;51.992;4.206;2022-11-20T06:52:53;26.67;;;19.15;;
58615;SDS011;44385;51.992;4.206;2022-11-20T06:55:19;25.65;;;19.33;;
58615;SDS011;44385;51.992;4.206;2022-11-20T06:57:46;30.02;;;20.05;;
58615;SDS011;44385;51.992;4.206;2022-11-20T07:00:13;25.75;;;19.13;;
58615;SDS011;44385;51.992;4.206;2022-11-20T07:02:41;25.50;;;18.52;;
58615;SDS011;44385;51.992;4.206;2022-11-20T07:05:07;26.85;;;18.83;;
58615;SDS011;44385;51.992;4.206;2022-11-20T07:07:34;26.05;;;18.15;;
58615;SDS011;44385;51.992;4.206;2022-11-20T07:10:00;27.88;;;18.92;;
58615;SDS011;44385;51.992;4.206;2022-11-20T07:12:26;31.42;;;20.77;;
58615;SDS011;44385;51.992;4.206;2022-11-20T07:14:53;28.27;;;20.80;;
58615;SDS011;44385;51.992;4.206;2022-11-20T07:17:19;27.02;;;19.73;;
58615;SDS011;44385;51.992;4.206;2022-11-20T07:19:47;25.25;;;18.80;;
58615;SDS011;44385;51.992;4.206;2022-11-20T07:22:13;26.40;;;19.17;;
58615;SDS011;44385;51.992;4.206;2022-11-20T07:24:40;25.90;;;18.55;;
58615;SDS011;44385;51.992;4.206;2022-11-20T07:27:09;27.65;;;20.23;;
58615;SDS011;44385;51.992;4.206;2022-11-20T07:29:36;24.27;;;18.65;;
58615;SDS011;44385;51.992;4.206;2022-11-20T07:32:03;28.48;;;19.98;;
58615;SDS011;44385;51.992;4.206;2022-11-20T07:34:30;27.88;;;20.00;;
58615;SDS011;44385;51.992;4.206;2022-11-20T07:36:58;27.25;;;18.55;;
58615;SDS011;44385;51.992;4.206;2022-11-20T07:39:24;26.63;;;18.25;;
58615;SDS011;44385;51.992;4.206;2022-11-20T07:41:50;27.85;;;19.42;;
58615;SDS011;44385;51.992;4.206;2022-11-20T07:44:17;27.65;;;19.25;;
58615;SDS011;44385;51.992;4.206;2022-11-20T07:46:43;29.50;;;20.52;;
58615;SDS011;44385;51.992;4.206;2022-11-20T07:49:10;30.27;;;19.92;;
58615;SDS011;44385;51.992;4.206;2022-11-20T07:51:36;28.40;;;19.50;;
58615;SDS011;44385;51.992;4.206;2022-11-20T07:54:04;28.02;;;19.70;;
58615;SDS011;44385;51.992;4.206;2022-11-20T07:56:31;29.05;;;20.02;;
58615;SDS011;44385;51.992;4.206;2022-11-20T07:58:57;29.42;;;20.90;;
58615;SDS011;44385;51.992;4.206;2022-11-20T08:01:24;29.60;;;21.60;;
58615;SDS011;44385;51.992;4.206;2022-11-20T08:03:50;28.92;;;21.33;;
58615;SDS011;44385;51.992;4.206;2022-11-20T08:06:16;27.85;;;20.45;;
58615;SDS011;44385;51.992;4.206;2022-11-20T08:08:44;29.08;;;20.35;;
58615;SDS011;44385;51.992;4.206;2022-11-20T08:11:12;31.05;;;21.08;;
58615;SDS011;44385;51.992;4.206;2022-11-20T08:13:56;28.20;;;19.67;;
58615;SDS011;44385;51.992;4.206;2022-11-20T08:16:37;30.42;;;20.95;;
58615;SDS011;44385;51.992;4.206;2022-11-20T08:19:04;27.25;;;19.83;;
58615;SDS011;44385;51.992;4.206;2022-11-20T08:21:30;34.45;;;20.50;;
58615;SDS011;44385;51.992;4.206;2022-11-20T08:23:57;30.23;;;21.77;;
58615;SDS011;44385;51.992;4.206;2022-11-20T08:26:25;31.02;;;21.17;;
58615;SDS011;44385;51.992;4.206;2022-11-20T08:28:53;29.45;;;21.13;;
58615;SDS011;44385;51.992;4.206;2022-11-20T08:31:19;32.40;;;22.23;;
58615;SDS011;44385;51.992;4.206;2022-11-20T08:33:45;29.25;;;20.58;;
58615;SDS011;44385;51.992;4.206;2022-11-20T08:36:12;29.73;;;21.15;;
58615;SDS011;44385;51.992;4.206;2022-11-20T08:38:38;30.13;;;22.08;;
58615;SDS011;44385;51.992;4.206;2022-11-20T08:41:05;30.02;;;20.55;;
58615;SDS011;44385;51.992;4.206;2022-11-20T08:43:52;29.48;;;21.30;;
58615;SDS011;44385;51.992;4.206;2022-11-20T08:46:19;32.05;;;21.20;;
58615;SDS011;44385;51.992;4.206;2022-11-20T08:48:46;29.45;;;20.30;;
58615;SDS011;44385;51.992;4.206;2022-11-20T08:51:12;31.15;;;20.70;;
58615;SDS011;44385;51.992;4.206;2022-11-20T08:53:39;28.40;;;21.13;;
58615;SDS011;44385;51.992;4.206;2022-11-20T08:56:06;31.98;;;20.63;;
58615;SDS011;44385;51.992;4.206;2022-11-20T08:58:32;37.88;;;21.48;;
58615;SDS011;44385;51.992;4.206;2022-11-20T09:01:00;32.60;;;21.80;;
58615;SDS011;44385;51.992;4.206;2022-11-20T09:03:27;30.77;;;21.65;;
58615;SDS011;44385;51.992;4.206;2022-11-20T09:05:56;33.85;;;21.05;;
58615;SDS011;44385;51.992;4.206;2022-11-20T09:08:22;36.78;;;24.00;;
58615;SDS011;44385;51.992;4.206;2022-11-20T09:10:50;34.20;;;21.85;;
58615;SDS011;44385;51.992;4.206;2022-11-20T09:13:17;35.85;;;24.02;;
58615;SDS011;44385;51.992;4.206;2022-11-20T09:15:43;36.60;;;23.77;;
58615;SDS011;44385;51.992;4.206;2022-11-20T09:18:11;40.92;;;24.30;;
58615;SDS011;44385;51.992;4.206;2022-11-20T09:20:38;42.55;;;23.70;;
58615;SDS011;44385;51.992;4.206;2022-11-20T09:23:05;43.53;;;24.10;;
58615;SDS011;44385;51.992;4.206;2022-11-20T09:25:32;35.35;;;22.77;;
58615;SDS011;44385;51.992;4.206;2022-11-20T09:27:58;38.15;;;23.40;;
58615;SDS011;44385;51.992;4.206;2022-11-20T09:30:25;36.58;;;23.90;;
58615;SDS011;44385;51.992;4.206;2022-11-20T09:32:51;43.25;;;25.52;;
58615;SDS011;44385;51.992;4.206;2022-11-20T09:35:19;41.75;;;24.95;;
58615;SDS011;44385;51.992;4.206;2022-11-20T09:37:46;41.92;;;24.77;;
58615;SDS011;44385;51.992;4.206;2022-11-20T09:40:17;45.10;;;26.23;;
58615;SDS011;44385;51.992;4.206;2022-11-20T09:42:45;41.53;;;26.00;;
58615;SDS011;44385;51.992;4.206;2022-11-20T09:45:21;41.22;;;26.15;;
58615;SDS011;44385;51.992;4.206;2022-11-20T09:47:55;45.00;;;27.02;;
58615;SDS011;44385;51.992;4.206;2022-11-20T09:50:27;44.13;;;26.10;;
58615;SDS011;44385;51.992;4.206;2022-11-20T09:53:01;50.60;;;28.20;;
58615;SDS011;44385;51.992;4.206;2022-11-20T09:55:30;50.38;;;26.98;;
58615;SDS011;44385;51.992;4.206;2022-11-20T09:57:56;49.58;;;28.77;;
58615;SDS011;44385;51.992;4.206;2022-11-20T10:00:23;39.63;;;24.23;;
58615;SDS011;44385;51.992;4.206;2022-11-20T10:02:51;50.20;;;27.92;;
58615;SDS011;44385;51.992;4.206;2022-11-20T10:05:20;52.00;;;28.67;;
58615;SDS011;44385;51.992;4.206;2022-11-20T10:07:51;56.20;;;29.20;;
58615;SDS011;44385;51.992;4.206;2022-11-20T10:10:22;51.65;;;28.77;;
58615;SDS011;44385;51.992;4.206;2022-11-20T10:12:56;52.35;;;31.10;;
58615;SDS011;44385;51.992;4.206;2022-11-20T10:15:28;52.17;;;29.48;;
58615;SDS011;44385;51.992;4.206;2022-11-20T10:18:02;54.65;;;30.58;;
58615;SDS011;44385;51.992;4.206;2022-11-20T10:20:32;55.88;;;30.30;;
58615;SDS011;44385;51.992;4.206;2022-11-20T10:23:11;53.78;;;29.45;;
58615;SDS011;44385;51.992;4.206;2022-11-20T10:25:39;55.72;;;30.98;;
58615;SDS011;44385;51.992;4.206;2022-11-20T10:31:01;52.92;;;28.70;;
58615;SDS011;44385;51.992;4.206;2022-11-20T10:33:29;61.05;;;31.98;;
58615;SDS011;44385;51.992;4.206;2022-11-20T10:35:59;56.05;;;31.98;;
58615;SDS011;44385;51.992;4.206;2022-11-20T10:38:29;56.85;;;29.55;;
58615;SDS011;44385;51.992;4.206;2022-11-20T10:40:59;52.15;;;28.75;;
58615;SDS011;44385;51.992;4.206;2022-11-20T10:43:41;57.30;;;31.65;;
58615;SDS011;44385;51.992;4.206;2022-11-20T10:46:08;57.08;;;31.52;;
58615;SDS011;44385;51.992;4.206;2022-11-20T10:48:36;58.03;;;31.73;;
58615;SDS011;44385;51.992;4.206;2022-11-20T10:51:16;59.50;;;32.72;;
58615;SDS011;44385;51.992;4.206;2022-11-20T10:53:53;59.55;;;32.45;;
58615;SDS011;44385;51.992;4.206;2022-11-20T10:56:24;58.63;;;31.88;;
58615;SDS011;44385;51.992;4.206;2022-11-20T10:59:04;57.92;;;31.35;;
58615;SDS011;44385;51.992;4.206;2022-11-20T11:01:39;57.13;;;33.20;;
58615;SDS011;44385;51.992;4.206;2022-11-20T11:04:13;57.45;;;31.83;;
58615;SDS011;44385;51.992;4.206;2022-11-20T11:06:42;59.20;;;31.27;;
58615;SDS011;44385;51.992;4.206;2022-11-20T11:09:15;57.90;;;31.70;;
58615;SDS011;44385;51.992;4.206;2022-11-20T11:14:11;57.90;;;31.27;;
58615;SDS011;44385;51.992;4.206;2022-11-20T11:16:40;58.55;;;31.60;;
58615;SDS011;44385;51.992;4.206;2022-11-20T11:19:17;61.08;;;33.72;;
58615;SDS011;44385;51.992;4.206;2022-11-20T11:21:46;56.78;;;32.25;;
58615;SDS011;44385;51.992;4.206;2022-11-20T11:24:19;58.28;;;31.15;;
58615;SDS011;44385;51.992;4.206;2022-11-20T11:26:50;62.38;;;32.83;;
58615;SDS011;44385;51.992;4.206;2022-11-20T11:29:17;57.40;;;31.65;;
58615;SDS011;44385;51.992;4.206;2022-11-20T11:31:43;59.50;;;31.73;;
58615;SDS011;44385;51.992;4.206;2022-11-20T11:34:11;55.35;;;31.17;;
58615;SDS011;44385;51.992;4.206;2022-11-20T11:36:38;57.90;;;32.55;;
58615;SDS011;44385;51.992;4.206;2022-11-20T11:39:05;56.58;;;31.27;;
58615;SDS011;44385;51.992;4.206;2022-11-20T11:41:35;58.50;;;30.30;;
58615;SDS011;44385;51.992;4.206;2022-11-20T11:44:04;48.08;;;29.50;;
58615;SDS011;44385;51.992;4.206;2022-11-20T11:46:58;54.55;;;30.60;;
58615;SDS011;44385;51.992;4.206;2022-11-20T11:49:24;51.28;;;30.10;;
58615;SDS011;44385;51.992;4.206;2022-11-20T11:51:57;55.67;;;30.65;;
58615;SDS011;44385;51.992;4.206;2022-11-20T11:54:24;48.38;;;28.73;;
58615;SDS011;44385;51.992;4.206;2022-11-20T11:56:53;52.13;;;30.15;;
58615;SDS011;44385;51.992;4.206;2022-11-20T11:59:22;53.47;;;29.13;;
58615;SDS011;44385;51.992;4.206;2022-11-20T12:01:52;55.90;;;29.15;;
58615;SDS011;44385;51.992;4.206;2022-11-20T12:04:21;50.50;;;29.02;;
58615;SDS011;44385;51.992;4.206;2022-11-20T12:06:50;60.28;;;31.80;;
58615;SDS011;44385;51.992;4.206;2022-11-20T12:09:18;53.47;;;31.20;;
58615;SDS011;44385;51.992;4.206;2022-11-20T12:11:46;50.50;;;30.40;;
58615;SDS011;44385;51.992;4.206;2022-11-20T12:14:18;54.22;;;29.05;;
58615;SDS011;44385;51.992;4.206;2022-11-20T12:16:49;47.72;;;29.00;;
58615;SDS011;44385;51.992;4.206;2022-11-20T12:19:16;59.05;;;30.95;;
58615;SDS011;44385;51.992;4.206;2022-11-20T12:21:49;56.75;;;30.55;;
58615;SDS011;44385;51.992;4.206;2022-11-20T12:24:30;56.67;;;30.58;;
58615;SDS011;44385;51.992;4.206;2022-11-20T12:27:02;59.90;;;33.08;;
58615;SDS011;44385;51.992;4.206;2022-11-20T12:29:35;56.67;;;32.25;;
58615;SDS011;44385;51.992;4.206;2022-11-20T12:32:06;56.78;;;32.30;;
58615;SDS011;44385;51.992;4.206;2022-11-20T12:34:44;58.83;;;34.63;;
58615;SDS011;44385;51.992;4.206;2022-11-20T12:37:15;61.45;;;32.58;;
58615;SDS011;44385;51.992;4.206;2022-11-20T12:39:45;60.45;;;32.05;;
58615;SDS011;44385;51.992;4.206;2022-11-20T12:42:20;61.08;;;33.35;;
58615;SDS011;44385;51.992;4.206;2022-11-20T12:45:17;59.28;;;32.03;;
58615;SDS011;44385;51.992;4.206;2022-11-20T12:47:50;57.95;;;32.08;;
58615;SDS011;44385;51.992;4.206;2022-11-20T12:50:22;60.33;;;32.05;;
58615;SDS011;44385;51.992;4.206;2022-11-20T12:52:55;60.10;;;33.60;;
58615;SDS011;44385;51.992;4.206;2022-11-20T12:55:25;63.38;;;34.13;;
58615;SDS011;44385;51.992;4.206;2022-11-20T12:57:53;66.93;;;34.17;;
58615;SDS011;44385;51.992;4.206;2022-11-20T13:00:22;59.85;;;33.70;;
58615;SDS011;44385;51.992;4.206;2022-11-20T13:05:37;71.13;;;37.25;;
58615;SDS011;44385;51.992;4.206;2022-11-20T13:08:07;71.68;;;34.55;;
58615;SDS011;44385;51.992;4.206;2022-11-20T13:10:37;71.38;;;37.72;;
58615;SDS011;44385;51.992;4.206;2022-11-20T13:13:08;78.88;;;39.75;;
58615;SDS011;44385;51.992;4.206;2022-11-20T13:15:47;78.00;;;39.17;;
58615;SDS011;44385;51.992;4.206;2022-11-20T13:18:15;80.72;;;39.33;;
58615;SDS011;44385;51.992;4.206;2022-11-20T13:20:42;77.13;;;39.97;;
58615;SDS011;44385;51.992;4.206;2022-11-20T13:23:09;78.63;;;39.45;;
58615;SDS011;44385;51.992;4.206;2022-11-20T13:25:36;87.25;;;41.65;;
58615;SDS011;44385;51.992;4.206;2022-11-20T13:28:04;83.70;;;42.47;;
58615;SDS011;44385;51.992;4.206;2022-11-20T13:30:32;85.25;;;42.20;;
58615;SDS011;44385;51.992;4.206;2022-11-20T13:33:03;91.43;;;42.78;;
58615;SDS011;44385;51.992;4.206;2022-11-20T13:35:33;102.88;;;44.40;;
58615;SDS011;44385;51.992;4.206;2022-11-20T13:38:04;100.15;;;43.65;;
58615;SDS011;44385;51.992;4.206;2022-11-20T13:40:32;102.68;;;44.63;;
58615;SDS011;44385;51.992;4.206;2022-11-20T13:43:04;113.25;;;48.55;;
58615;SDS011;44385;51.992;4.206;2022-11-20T13:45:33;101.43;;;44.10;;
58615;SDS011;44385;51.992;4.206;2022-11-20T13:48:02;106.55;;;45.40;;
58615;SDS011;44385;51.992;4.206;2022-11-20T13:50:39;99.97;;;43.63;;
58615;SDS011;44385;51.992;4.206;2022-11-20T13:53:09;106.43;;;47.17;;
58615;SDS011;44385;51.992;4.206;2022-11-20T13:55:42;110.47;;;45.53;;
58615;SDS011;44385;51.992;4.206;2022-11-20T13:58:23;107.88;;;45.22;;
58615;SDS011;44385;51.992;4.206;2022-11-20T14:00:55;107.13;;;46.58;;
58615;SDS011;44385;51.992;4.206;2022-11-20T14:03:24;123.90;;;45.25;;
58615;SDS011;44385;51.992;4.206;2022-11-20T14:05:51;105.57;;;45.35;;
58615;SDS011;44385;51.992;4.206;2022-11-20T14:08:23;114.13;;;45.08;;
58615;SDS011;44385;51.992;4.206;2022-11-20T14:10:50;123.20;;;47.35;;
58615;SDS011;44385;51.992;4.206;2022-11-20T14:13:17;115.50;;;47.40;;
58615;SDS011;44385;51.992;4.206;2022-11-20T14:15:45;112.07;;;45.33;;
58615;SDS011;44385;51.992;4.206;2022-11-20T14:18:12;123.55;;;46.65;;
58615;SDS011;44385;51.992;4.206;2022-11-20T14:20:40;114.20;;;47.55;;
58615;SDS011;44385;51.992;4.206;2022-11-20T14:23:08;109.15;;;44.97;;
58615;SDS011;44385;51.992;4.206;2022-11-20T14:25:35;116.75;;;48.70;;
58615;SDS011;44385;51.992;4.206;2022-11-20T14:28:02;123.50;;;46.95;;
58615;SDS011;44385;51.992;4.206;2022-11-20T14:30:29;122.47;;;47.22;;
58615;SDS011;44385;51.992;4.206;2022-11-20T14:33:02;123.45;;;46.88;;
58615;SDS011;44385;51.992;4.206;2022-11-20T14:35:31;104.22;;;46.10;;
58615;SDS011;44385;51.992;4.206;2022-11-20T14:37:59;109.90;;;46.30;;
58615;SDS011;44385;51.992;4.206;2022-11-20T14:40:28;117.50;;;45.60;;
58615;SDS011;44385;51.992;4.206;2022-11-20T14:42:55;103.40;;;45.17;;